Terminal Aerodrome Forecast
Issued by NWS

Home | Current Version | Previous Version | Text Only | Print | Product List | Glossary On
Versions: 1 2 3 4 5 6 7 8 9 10 11 12 13 14 15 16 17 18 19
615
FTUS43 KICT 241132
TAFCNU
TAF
KCNU 241132Z 2412/2512 12011KT P6SM SKC
     FM241600 17015G22KT P6SM FEW150
     FM241900 19019G27KT P6SM SCT150
     FM250300 25012KT P6SM SCT150=

USA.gov is the U.S. government's official web portal to all federal, state and local government web resources and services.